Time;durP1;ratioP1;P1;durP2;ratioP2;P2;SDS_P1;SDS_P2;PMS_P1;PMS_P2;Temp;Humidity;BMP_temperature;BMP_pressure;BME280_temperature;BME280_humidity;BME280_pressure;Samples;Min_cycle;Max_cycle;Signal;HPM_P1;HPM_P2
2023/10/05 00:01:56;;;;;;;;;14.25;8.50;;;;;;;;5083690;28;10551;-78
2023/10/05 00:04:23;;;;;;;;;8.25;5.25;;;;;;;;5083743;28;11106;-78
2023/10/05 00:06:53;;;;;;;;;10.50;7.50;;;;;;;;5081454;28;10613;-78
2023/10/05 00:09:18;;;;;;;;;8.25;6.75;;;;;;;;5078543;28;10692;-78
2023/10/05 00:11:44;;;;;;;;;14.50;9.00;;;;;;;;5062727;28;10537;-77
2023/10/05 00:14:10;;;;;;;;;8.75;7.75;;;;;;;;5069018;28;8876;-77
2023/10/05 00:16:36;;;;;;;;;13.00;8.00;;;;;;;;5082157;28;8787;-78
2023/10/05 00:19:04;;;;;;;;;9.75;8.00;;;;;;;;5084410;28;10739;-78
2023/10/05 00:21:35;;;;;;;;;10.00;6.50;;;;;;;;5082907;28;8723;-78
2023/10/05 00:24:00;;;;;;;;;5.00;5.00;;;;;;;;5100757;28;11631;-78
2023/10/05 00:26:29;;;;;;;;;14.75;7.25;;;;;;;;5102753;28;10583;-77
2023/10/05 00:31:30;;;;;;;;;9.75;8.00;;;;;;;;5102356;28;10467;-77
2023/10/05 00:33:56;;;;;;;;;10.50;6.75;;;;;;;;5065660;28;10648;-78
2023/10/05 00:36:25;;;;;;;;;18.00;8.75;;;;;;;;5064354;28;10546;-78
2023/10/05 00:38:51;;;;;;;;;8.50;7.75;;;;;;;;5071041;28;10792;-78
2023/10/05 00:41:16;;;;;;;;;9.25;6.00;;;;;;;;5061902;28;10590;-78
2023/10/05 00:43:46;;;;;;;;;8.25;5.25;;;;;;;;5070883;28;8840;-77
2023/10/05 00:46:11;;;;;;;;;8.75;8.25;;;;;;;;5082568;28;8794;-78
2023/10/05 00:48:41;;;;;;;;;9.50;8.00;;;;;;;;5087017;28;10418;-78
2023/10/05 00:51:14;;;;;;;;;12.00;9.00;;;;;;;;5099903;28;8757;-77
2023/10/05 00:53:40;;;;;;;;;10.25;6.00;;;;;;;;5095803;28;10749;-78
2023/10/05 00:56:15;;;;;;;;;11.25;8.00;;;;;;;;5102334;28;10539;-78
2023/10/05 00:58:44;;;;;;;;;11.50;8.00;;;;;;;;5088899;28;8782;-77
2023/10/05 01:01:22;;;;;;;;;7.25;4.75;;;;;;;;5082846;28;11431;-78
2023/10/05 01:06:42;;;;;;;;;9.00;7.25;;;;;;;;5085819;28;11540;-78
2023/10/05 01:11:54;;;;;;;;;9.75;7.75;;;;;;;;5081934;28;10225;-78
2023/10/05 01:14:23;;;;;;;;;7.25;7.25;;;;;;;;5081509;28;10546;-78
2023/10/05 01:16:48;;;;;;;;;10.50;8.00;;;;;;;;5077822;28;10589;-78
2023/10/05 01:19:13;;;;;;;;;11.00;9.00;;;;;;;;5067318;28;10687;-78
2023/10/05 01:21:40;;;;;;;;;10.25;8.50;;;;;;;;5080475;28;8802;-78
2023/10/05 01:24:06;;;;;;;;;7.00;7.00;;;;;;;;5081713;28;8739;-77
2023/10/05 01:26:37;;;;;;;;;10.00;9.50;;;;;;;;5088155;28;10373;-78
2023/10/05 01:29:02;;;;;;;;;5.50;3.25;;;;;;;;5102798;28;8705;-78
2023/10/05 01:31:27;;;;;;;;;10.25;7.50;;;;;;;;5100516;28;10550;-76
2023/10/05 01:33:53;;;;;;;;;7.25;6.25;;;;;;;;5099995;28;8788;-78
2023/10/05 01:36:22;;;;;;;;;4.75;4.75;;;;;;;;5095564;28;8798;-78
2023/10/05 01:38:48;;;;;;;;;5.00;5.00;;;;;;;;5079157;28;8739;-77
2023/10/05 01:41:20;;;;;;;;;7.00;7.00;;;;;;;;5079310;28;10582;-78
2023/10/05 01:43:45;;;;;;;;;6.00;6.00;;;;;;;;5070172;28;12050;-78
2023/10/05 01:46:10;;;;;;;;;9.00;3.25;;;;;;;;5076848;28;10558;-78
2023/10/05 01:48:40;;;;;;;;;10.25;6.75;;;;;;;;5081944;28;8831;-78
2023/10/05 01:51:10;;;;;;;;;7.75;6.75;;;;;;;;5081297;28;8723;-78
2023/10/05 01:53:35;;;;;;;;;9.00;6.00;;;;;;;;5081133;28;10613;-77
2023/10/05 01:56:01;;;;;;;;;5.25;5.00;;;;;;;;5063767;28;10723;-78
2023/10/05 01:58:27;;;;;;;;;8.75;4.25;;;;;;;;5072013;28;8787;-78
2023/10/05 02:00:54;;;;;;;;;6.50;5.25;;;;;;;;5097148;28;8793;-77
2023/10/05 02:03:23;;;;;;;;;5.50;4.25;;;;;;;;5080405;28;10699;-78
2023/10/05 02:05:49;;;;;;;;;3.75;3.75;;;;;;;;5081436;28;12564;-78
2023/10/05 02:08:14;;;;;;;;;4.00;4.00;;;;;;;;5081381;28;10510;-78
2023/10/05 02:10:40;;;;;;;;;3.00;2.00;;;;;;;;5081270;28;8802;-78
2023/10/05 02:13:06;;;;;;;;;5.00;3.75;;;;;;;;5079849;28;8782;-77
2023/10/05 02:15:39;;;;;;;;;5.75;4.00;;;;;;;;5081788;28;8824;-78
2023/10/05 02:18:07;;;;;;;;;3.50;3.25;;;;;;;;5081687;28;10474;-78
2023/10/05 02:20:38;;;;;;;;;4.50;2.75;;;;;;;;5101220;28;10518;-77
2023/10/05 02:23:17;;;;;;;;;2.00;2.00;;;;;;;;5101188;28;10607;-78
2023/10/05 02:25:43;;;;;;;;;3.50;3.25;;;;;;;;5077087;28;10303;-78
2023/10/05 02:28:08;;;;;;;;;2.00;2.00;;;;;;;;5080180;28;10476;-78
2023/10/05 02:30:33;;;;;;;;;3.00;3.00;;;;;;;;5081567;28;8787;-78
2023/10/05 02:32:59;;;;;;;;;4.75;4.00;;;;;;;;5077589;28;8802;-78
2023/10/05 02:35:33;;;;;;;;;4.50;4.00;;;;;;;;5093109;28;8797;-77
2023/10/05 02:37:59;;;;;;;;;7.00;3.00;;;;;;;;5089609;28;8743;-78
2023/10/05 02:40:35;;;;;;;;;4.25;4.25;;;;;;;;5084335;28;10335;-78
2023/10/05 02:43:07;;;;;;;;;5.25;4.00;;;;;;;;5058273;28;10079;-78
2023/10/05 02:45:37;;;;;;;;;4.75;3.75;;;;;;;;5074396;28;10469;-77
2023/10/05 02:48:05;;;;;;;;;4.00;3.00;;;;;;;;5081210;28;10417;-77
2023/10/05 02:50:32;;;;;;;;;6.75;4.00;;;;;;;;5093611;28;10527;-77
2023/10/05 02:52:59;;;;;;;;;3.00;3.00;;;;;;;;5083506;28;10713;-77
2023/10/05 02:55:26;;;;;;;;;6.00;4.00;;;;;;;;5066502;28;10651;-78
2023/10/05 02:57:51;;;;;;;;;3.00;3.00;;;;;;;;5084320;28;10510;-77
2023/10/05 03:00:20;;;;;;;;;3.25;3.25;;;;;;;;5089174;28;10583;-78
2023/10/05 03:02:49;;;;;;;;;5.25;4.00;;;;;;;;5082466;28;8727;-77
2023/10/05 03:05:14;;;;;;;;;5.50;4.75;;;;;;;;5084178;28;10563;-77
2023/10/05 03:07:42;;;;;;;;;5.75;4.00;;;;;;;;5083556;28;10447;-77
2023/10/05 03:10:13;;;;;;;;;3.00;3.00;;;;;;;;5070617;28;8733;-78
2023/10/05 03:12:38;;;;;;;;;4.50;3.00;;;;;;;;5063477;28;10604;-77
2023/10/05 03:15:06;;;;;;;;;4.50;4.50;;;;;;;;5072836;28;10296;-77
2023/10/05 03:17:33;;;;;;;;;3.75;3.75;;;;;;;;5080220;28;8792;-77
2023/10/05 03:19:58;;;;;;;;;4.50;4.00;;;;;;;;5069514;28;10637;-77
2023/10/05 03:22:24;;;;;;;;;3.00;3.00;;;;;;;;5080329;28;10603;-77
2023/10/05 03:24:49;;;;;;;;;5.50;4.00;;;;;;;;5063978;28;8874;-77
2023/10/05 03:27:16;;;;;;;;;5.00;3.50;;;;;;;;5082966;28;8803;-77
2023/10/05 03:29:45;;;;;;;;;3.25;3.00;;;;;;;;5060626;28;8794;-77
2023/10/05 03:34:39;;;;;;;;;6.25;5.00;;;;;;;;5063289;28;10357;-77
2023/10/05 03:37:08;;;;;;;;;5.25;5.25;;;;;;;;5063383;28;8765;-77
2023/10/05 03:40:24;;;;;;;;;9.25;5.50;;;;;;;;5080918;28;10555;-77
2023/10/05 03:42:22;;;;;;;;;5.00;5.00;;;;;;;;5075375;28;10904;-77
2023/10/05 03:47:28;;;;;;;;;8.50;6.50;;;;;;;;5071901;28;8781;-77
2023/10/05 03:49:56;;;;;;;;;7.25;5.00;;;;;;;;5097451;28;10864;-77
2023/10/05 03:52:22;;;;;;;;;6.75;5.75;;;;;;;;5082655;28;8836;-77
2023/10/05 03:54:47;;;;;;;;;5.75;3.50;;;;;;;;5078883;28;10719;-77
2023/10/05 03:57:13;;;;;;;;;6.75;6.25;;;;;;;;5066076;28;8900;-77
2023/10/05 03:59:39;;;;;;;;;7.25;7.25;;;;;;;;5083812;28;8787;-77
2023/10/05 04:02:06;;;;;;;;;7.75;7.50;;;;;;;;5065213;28;10081;-77
2023/10/05 04:04:31;;;;;;;;;3.50;3.50;;;;;;;;5082987;28;10582;-77
2023/10/05 04:06:57;;;;;;;;;8.50;6.00;;;;;;;;5082817;28;10759;-77
2023/10/05 04:09:22;;;;;;;;;6.25;5.00;;;;;;;;5081807;28;8788;-77
2023/10/05 04:11:48;;;;;;;;;10.00;4.75;;;;;;;;5083313;28;11037;-77
2023/10/05 04:14:14;;;;;;;;;5.00;4.25;;;;;;;;5082614;28;9028;-77
2023/10/05 04:16:40;;;;;;;;;9.50;5.50;;;;;;;;5083445;28;8758;-77
2023/10/05 04:19:09;;;;;;;;;5.25;5.00;;;;;;;;5063843;28;10754;-77
2023/10/05 04:21:35;;;;;;;;;4.75;4.75;;;;;;;;5083082;28;10787;-77
2023/10/05 04:24:00;;;;;;;;;8.25;6.50;;;;;;;;5083405;28;10709;-77
2023/10/05 04:26:33;;;;;;;;;9.25;5.25;;;;;;;;5080299;28;8794;-77
2023/10/05 04:29:05;;;;;;;;;8.50;5.00;;;;;;;;5073391;28;9668;-77
2023/10/05 04:31:36;;;;;;;;;5.00;3.75;;;;;;;;5081980;28;10777;-77
2023/10/05 04:34:05;;;;;;;;;4.25;1.50;;;;;;;;5070441;28;10622;-77
2023/10/05 04:36:30;;;;;;;;;8.25;5.25;;;;;;;;5067765;28;10647;-77
2023/10/05 04:38:55;;;;;;;;;8.00;5.00;;;;;;;;5080621;28;10571;-77
2023/10/05 04:41:39;;;;;;;;;5.50;4.50;;;;;;;;5082531;28;8874;-77
2023/10/05 04:44:07;;;;;;;;;5.25;4.50;;;;;;;;5063316;28;8719;-77
2023/10/05 04:46:32;;;;;;;;;6.50;4.25;;;;;;;;5082122;28;10297;-77
2023/10/05 04:49:12;;;;;;;;;5.00;4.00;;;;;;;;5082450;28;10613;-77
2023/10/05 04:51:40;;;;;;;;;8.75;7.00;;;;;;;;5082125;28;8770;-77
2023/10/05 04:54:07;;;;;;;;;7.75;4.25;;;;;;;;5082889;28;10672;-77
2023/10/05 04:56:39;;;;;;;;;8.50;5.00;;;;;;;;5062015;28;10351;-76
2023/10/05 05:01:56;;;;;;;;;4.00;4.00;;;;;;;;5078304;28;10796;-75
2023/10/05 05:07:00;;;;;;;;;3.25;3.25;;;;;;;;5082324;28;10642;-76
2023/10/05 05:09:29;;;;;;;;;8.00;4.75;;;;;;;;5081805;28;10805;-77
2023/10/05 05:11:56;;;;;;;;;8.75;4.00;;;;;;;;5083024;28;10698;-79
2023/10/05 05:14:23;;;;;;;;;8.50;4.00;;;;;;;;5081209;28;10754;-78
2023/10/05 05:16:49;;;;;;;;;7.00;5.25;;;;;;;;5082335;28;10334;-79
2023/10/05 05:19:15;;;;;;;;;5.75;4.25;;;;;;;;5085123;28;10607;-78
2023/10/05 05:21:40;;;;;;;;;6.25;4.50;;;;;;;;5094604;28;10868;-80
2023/10/05 05:24:05;;;;;;;;;5.75;4.00;;;;;;;;5092163;28;8811;-80
2023/10/05 05:26:31;;;;;;;;;7.50;5.25;;;;;;;;5085854;28;8827;-75
2023/10/05 05:28:58;;;;;;;;;6.50;3.00;;;;;;;;5092910;28;11379;-75
2023/10/05 05:31:24;;;;;;;;;6.75;6.75;;;;;;;;5080632;28;8758;-78
2023/10/05 05:33:49;;;;;;;;;8.50;4.00;;;;;;;;5090122;28;10787;-78
2023/10/05 05:36:16;;;;;;;;;6.25;4.25;;;;;;;;5082438;28;8818;-77
2023/10/05 05:38:47;;;;;;;;;8.75;5.00;;;;;;;;5077333;28;8763;-75
2023/10/05 05:41:18;;;;;;;;;4.75;4.00;;;;;;;;5065502;28;10800;-77
2023/10/05 05:43:45;;;;;;;;;8.50;5.00;;;;;;;;5062422;28;10623;-75
2023/10/05 05:46:13;;;;;;;;;9.00;5.75;;;;;;;;5061765;28;10404;-76
2023/10/05 05:48:48;;;;;;;;;11.00;5.25;;;;;;;;5077228;28;8871;-75
2023/10/05 05:51:17;;;;;;;;;7.75;4.75;;;;;;;;5073648;28;10903;-75
2023/10/05 05:53:43;;;;;;;;;6.75;6.75;;;;;;;;5079813;28;10661;-76
2023/10/05 05:56:28;;;;;;;;;8.75;6.00;;;;;;;;5080893;28;10668;-76
2023/10/05 05:58:54;;;;;;;;;4.00;4.00;;;;;;;;5079262;28;10907;-76
2023/10/05 06:01:20;;;;;;;;;7.50;6.00;;;;;;;;5081686;28;10483;-76
2023/10/05 06:03:49;;;;;;;;;14.25;7.00;;;;;;;;5079012;28;10792;-76
2023/10/05 06:06:15;;;;;;;;;8.75;6.75;;;;;;;;5080302;28;10890;-76
2023/10/05 06:08:41;;;;;;;;;8.00;6.50;;;;;;;;5080589;28;10514;-76
2023/10/05 06:11:08;;;;;;;;;6.75;4.75;;;;;;;;5078662;28;10870;-76
2023/10/05 06:13:36;;;;;;;;;5.75;5.75;;;;;;;;5079721;28;10712;-76
2023/10/05 06:16:03;;;;;;;;;9.25;5.00;;;;;;;;5083293;28;10706;-76
2023/10/05 06:18:29;;;;;;;;;7.25;5.75;;;;;;;;5083926;28;10571;-76
2023/10/05 06:20:54;;;;;;;;;6.50;6.50;;;;;;;;5082683;28;10762;-76
2023/10/05 06:23:19;;;;;;;;;7.00;6.50;;;;;;;;5092962;28;8872;-76
2023/10/05 06:25:48;;;;;;;;;7.50;4.75;;;;;;;;5084734;28;9076;-76
2023/10/05 06:28:13;;;;;;;;;3.75;3.75;;;;;;;;5084492;28;8892;-76
2023/10/05 06:30:38;;;;;;;;;5.75;5.50;;;;;;;;5084101;28;11083;-75
2023/10/05 06:33:07;;;;;;;;;6.25;4.25;;;;;;;;5090756;28;8787;-75
2023/10/05 06:35:32;;;;;;;;;5.50;5.50;;;;;;;;5086160;28;8787;-75
2023/10/05 06:37:57;;;;;;;;;5.75;5.00;;;;;;;;5087984;28;10870;-75
2023/10/05 06:40:23;;;;;;;;;5.25;5.25;;;;;;;;5084447;28;8809;-75
2023/10/05 06:42:49;;;;;;;;;10.00;10.00;;;;;;;;5070558;28;8781;-76
2023/10/05 06:45:15;;;;;;;;;8.00;7.00;;;;;;;;5069810;28;8885;-75
2023/10/05 06:47:40;;;;;;;;;7.50;7.00;;;;;;;;5084538;28;11572;-75
2023/10/05 06:50:08;;;;;;;;;7.75;7.00;;;;;;;;5081917;28;8817;-75
2023/10/05 06:52:46;;;;;;;;;7.75;7.75;;;;;;;;5082161;28;8825;-78
2023/10/05 06:55:18;;;;;;;;;6.50;5.25;;;;;;;;5085334;28;10742;-78
2023/10/05 06:57:43;;;;;;;;;10.00;8.50;;;;;;;;5071273;28;11586;-78
2023/10/05 07:00:16;;;;;;;;;7.50;6.75;;;;;;;;5076288;28;10908;-78
2023/10/05 07:02:42;;;;;;;;;13.00;10.00;;;;;;;;5050644;28;8846;-78
2023/10/05 07:05:08;;;;;;;;;8.50;7.25;;;;;;;;5072591;28;10970;-77
2023/10/05 07:07:34;;;;;;;;;8.00;7.00;;;;;;;;5084319;28;8955;-77
2023/10/05 07:10:00;;;;;;;;;14.75;8.00;;;;;;;;5101336;28;8713;-77
2023/10/05 07:12:25;;;;;;;;;9.00;7.00;;;;;;;;5099334;28;10698;-77
2023/10/05 07:14:50;;;;;;;;;5.00;5.00;;;;;;;;5090392;28;8838;-77
2023/10/05 07:17:16;;;;;;;;;6.75;6.75;;;;;;;;5097631;28;8792;-77
2023/10/05 07:19:42;;;;;;;;;11.50;7.00;;;;;;;;5090221;28;9687;-77
2023/10/05 07:22:09;;;;;;;;;10.75;8.75;;;;;;;;5089641;28;11489;-77
2023/10/05 07:24:34;;;;;;;;;5.25;5.00;;;;;;;;5097556;28;8755;-77
2023/10/05 07:27:00;;;;;;;;;5.50;5.25;;;;;;;;5072859;28;10772;-77
2023/10/05 07:29:26;;;;;;;;;9.50;7.25;;;;;;;;5063863;28;10176;-77
2023/10/05 07:31:51;;;;;;;;;10.00;6.25;;;;;;;;5081889;28;8827;-77
2023/10/05 07:34:16;;;;;;;;;6.00;4.75;;;;;;;;5063788;28;8863;-77
2023/10/05 07:36:41;;;;;;;;;5.00;4.00;;;;;;;;5062661;28;8797;-78
2023/10/05 07:39:11;;;;;;;;;7.50;5.00;;;;;;;;5071131;28;8774;-78
2023/10/05 07:41:36;;;;;;;;;5.50;5.50;;;;;;;;5072973;28;8911;-77
2023/10/05 07:44:02;;;;;;;;;8.00;7.25;;;;;;;;5061400;28;10632;-77
2023/10/05 07:46:27;;;;;;;;;3.00;3.00;;;;;;;;5079808;28;8804;-77
2023/10/05 07:48:52;;;;;;;;;7.25;7.25;;;;;;;;5083006;28;11388;-77
2023/10/05 07:51:18;;;;;;;;;13.00;6.00;;;;;;;;5082879;28;8953;-77
2023/10/05 07:53:43;;;;;;;;;6.50;6.50;;;;;;;;5082250;28;8881;-77
2023/10/05 07:56:09;;;;;;;;;9.00;9.00;;;;;;;;5080920;28;8801;-77
2023/10/05 07:58:34;;;;;;;;;9.50;5.50;;;;;;;;5065625;28;8881;-77
2023/10/05 08:00:59;;;;;;;;;14.25;10.25;;;;;;;;5084042;28;8794;-77
2023/10/05 08:03:25;;;;;;;;;31.25;23.50;;;;;;;;5083593;28;8783;-77
2023/10/05 08:05:50;;;;;;;;;8.50;7.25;;;;;;;;5099106;28;8830;-77
2023/10/05 08:08:15;;;;;;;;;13.25;7.75;;;;;;;;5083544;28;8818;-77
2023/10/05 08:10:40;;;;;;;;;8.75;7.00;;;;;;;;5083350;28;8771;-77
2023/10/05 08:13:06;;;;;;;;;8.25;6.00;;;;;;;;5083086;28;8817;-77
2023/10/05 08:15:31;;;;;;;;;13.25;9.50;;;;;;;;5065212;28;8969;-77
2023/10/05 08:17:56;;;;;;;;;12.50;11.50;;;;;;;;5083562;28;8852;-77
2023/10/05 08:20:24;;;;;;;;;10.00;7.50;;;;;;;;5083584;28;8809;-77
2023/10/05 08:22:49;;;;;;;;;16.25;13.50;;;;;;;;5064862;28;8796;-77
2023/10/05 08:25:16;;;;;;;;;11.50;11.50;;;;;;;;5071902;28;10812;-77
2023/10/05 08:27:48;;;;;;;;;15.50;15.00;;;;;;;;5103548;28;8709;-77
2023/10/05 08:30:13;;;;;;;;;18.75;15.75;;;;;;;;5103722;28;10582;-77
2023/10/05 08:32:39;;;;;;;;;19.00;15.25;;;;;;;;5103330;28;10862;-77
2023/10/05 08:35:13;;;;;;;;;15.50;11.25;;;;;;;;5096153;28;8856;-77
2023/10/05 08:37:42;;;;;;;;;9.75;9.25;;;;;;;;5081950;28;8773;-77
2023/10/05 08:40:27;;;;;;;;;7.00;7.00;;;;;;;;5081435;28;10626;-77
2023/10/05 08:42:54;;;;;;;;;20.50;14.75;;;;;;;;5082158;28;10301;-77
2023/10/05 08:45:23;;;;;;;;;19.50;14.75;;;;;;;;5098372;28;10985;-77
2023/10/05 08:47:53;;;;;;;;;19.75;18.50;;;;;;;;5064850;28;10950;-77
2023/10/05 08:50:22;;;;;;;;;14.50;12.25;;;;;;;;5098739;28;10990;-77
2023/10/05 08:52:47;;;;;;;;;17.50;16.50;;;;;;;;5082378;28;10702;-77
2023/10/05 08:55:13;;;;;;;;;13.25;12.75;;;;;;;;5082518;28;10855;-77
2023/10/05 08:57:39;;;;;;;;;17.25;15.25;;;;;;;;5082464;28;8814;-77
2023/10/05 09:00:08;;;;;;;;;15.50;13.00;;;;;;;;5064633;28;10750;-76
2023/10/05 09:02:36;;;;;;;;;13.25;10.75;;;;;;;;5082628;28;10763;-77
2023/10/05 09:05:07;;;;;;;;;12.50;9.50;;;;;;;;5082884;28;10659;-77
2023/10/05 09:07:36;;;;;;;;;8.25;7.25;;;;;;;;5082461;28;10538;-77
2023/10/05 09:10:05;;;;;;;;;9.25;9.00;;;;;;;;5082420;28;10512;-77
2023/10/05 09:17:59;;;;;;;;;4.75;4.75;;;;;;;;5082172;28;11408;-77
2023/10/05 09:20:30;;;;;;;;;8.00;5.00;;;;;;;;5082847;28;10469;-77
2023/10/05 09:22:56;;;;;;;;;10.50;6.75;;;;;;;;5081588;28;10407;-77
2023/10/05 09:25:27;;;;;;;;;7.00;4.00;;;;;;;;5082559;28;10278;-77
2023/10/05 09:27:56;;;;;;;;;6.00;4.50;;;;;;;;5082590;28;8913;-77
2023/10/05 09:30:22;;;;;;;;;2.75;2.75;;;;;;;;5082767;28;10226;-77
2023/10/05 09:32:48;;;;;;;;;7.00;4.00;;;;;;;;5082279;28;9936;-77
2023/10/05 09:35:31;;;;;;;;;7.00;4.50;;;;;;;;5082320;28;11530;-76
2023/10/05 09:38:01;;;;;;;;;4.50;4.50;;;;;;;;5081590;28;10342;-77
2023/10/05 09:40:28;;;;;;;;;5.00;3.00;;;;;;;;5082625;28;10443;-77
2023/10/05 09:42:55;;;;;;;;;5.75;3.00;;;;;;;;5081335;28;10019;-77
2023/10/05 09:45:23;;;;;;;;;7.00;3.00;;;;;;;;5082193;28;9983;-77
2023/10/05 09:47:51;;;;;;;;;5.00;2.00;;;;;;;;5082276;28;9970;-77
2023/10/05 09:50:21;;;;;;;;;3.50;3.00;;;;;;;;5085842;28;9840;-77
2023/10/05 09:52:48;;;;;;;;;1.75;1.50;;;;;;;;5084927;28;9837;-77
2023/10/05 09:55:17;;;;;;;;;2.50;2.50;;;;;;;;5081230;28;9883;-77
2023/10/05 09:57:46;;;;;;;;;4.00;3.00;;;;;;;;5047545;28;10158;-77
2023/10/05 10:00:27;;;;;;;;;5.00;2.25;;;;;;;;5081114;28;10051;-77
2023/10/05 10:03:02;;;;;;;;;2.75;2.75;;;;;;;;5065265;28;9999;-77
2023/10/05 10:05:36;;;;;;;;;5.50;3.25;;;;;;;;5080857;28;9864;-77
2023/10/05 10:08:23;;;;;;;;;5.50;5.00;;;;;;;;5064634;28;10032;-77
2023/10/05 10:11:02;;;;;;;;;1.50;0.50;;;;;;;;5065333;28;9909;-77
2023/10/05 10:13:27;;;;;;;;;2.75;2.50;;;;;;;;5063290;28;9763;-77
2023/10/05 10:15:53;;;;;;;;;3.25;2.00;;;;;;;;5065181;28;9970;-77
2023/10/05 10:18:21;;;;;;;;;3.75;2.00;;;;;;;;5047603;28;10163;-77
2023/10/05 10:20:48;;;;;;;;;2.00;2.00;;;;;;;;5064169;28;8796;-77
2023/10/05 10:23:21;;;;;;;;;3.50;2.00;;;;;;;;5065216;28;9535;-78
2023/10/05 10:25:50;;;;;;;;;7.25;2.25;;;;;;;;5065361;28;9720;-77
2023/10/05 10:28:16;;;;;;;;;3.00;1.25;;;;;;;;5065357;28;9762;-77
2023/10/05 10:31:06;;;;;;;;;3.50;2.00;;;;;;;;5063707;28;9785;-77
2023/10/05 10:33:34;;;;;;;;;3.00;2.00;;;;;;;;5076713;28;9762;-77
2023/10/05 10:36:00;;;;;;;;;4.25;2.00;;;;;;;;5085425;28;9801;-78
2023/10/05 10:38:27;;;;;;;;;2.00;2.00;;;;;;;;5083964;28;9993;-77
2023/10/05 10:41:15;;;;;;;;;5.00;2.50;;;;;;;;5084798;28;8708;-78
2023/10/05 10:43:43;;;;;;;;;1.50;1.50;;;;;;;;5082446;28;9773;-77
2023/10/05 10:46:20;;;;;;;;;2.00;2.00;;;;;;;;5089692;28;9569;-77
2023/10/05 10:48:57;;;;;;;;;2.75;1.75;;;;;;;;5074389;28;9959;-77
2023/10/05 10:51:22;;;;;;;;;2.33;1.00;;;;;;;;5069982;28;9639;-77
2023/10/05 10:53:55;;;;;;;;;2.00;2.00;;;;;;;;5083717;28;9475;-77
2023/10/05 10:56:21;;;;;;;;;3.00;1.75;;;;;;;;5097990;28;8769;-77
2023/10/05 10:58:48;;;;;;;;;4.25;1.75;;;;;;;;5107543;28;9863;-80
2023/10/05 11:01:28;;;;;;;;;2.00;2.00;;;;;;;;5090142;28;8896;-79
2023/10/05 11:04:04;;;;;;;;;8.50;3.25;;;;;;;;5085305;28;9745;-83
2023/10/05 11:06:30;;;;;;;;;1.00;1.00;;;;;;;;5065324;28;9773;-84
2023/10/05 11:08:59;;;;;;;;;1.00;1.00;;;;;;;;5079860;28;10001;-83
2023/10/05 11:11:24;;;;;;;;;5.00;2.00;;;;;;;;5083757;28;8719;-83
2023/10/05 11:13:55;;;;;;;;;2.00;2.00;;;;;;;;5083126;28;9794;-84
2023/10/05 11:16:20;;;;;;;;;1.25;1.25;;;;;;;;5083661;28;9704;-84
2023/10/05 11:18:50;;;;;;;;;1.75;1.00;;;;;;;;5082760;28;9840;-83
2023/10/05 11:21:24;;;;;;;;;1.25;1.25;;;;;;;;5083153;28;8715;-83
2023/10/05 11:23:56;;;;;;;;;1.00;1.00;;;;;;;;5082038;28;10605;-82
2023/10/05 11:26:56;;;;;;;;;3.00;1.75;;;;;;;;5081093;28;9555;-83
2023/10/05 11:29:28;;;;;;;;;5.00;2.00;;;;;;;;5079349;28;10489;-82
2023/10/05 11:31:54;;;;;;;;;1.25;1.25;;;;;;;;5062623;28;9751;-80
2023/10/05 11:34:22;;;;;;;;;1.00;1.00;;;;;;;;5066864;28;9620;-76
2023/10/05 11:36:52;;;;;;;;;2.50;1.75;;;;;;;;5081277;28;9484;-78
2023/10/05 11:39:38;;;;;;;;;1.67;1.00;;;;;;;;5080734;28;9642;-78
2023/10/05 11:42:03;;;;;;;;;2.00;1.50;;;;;;;;5078831;28;9433;-78
2023/10/05 11:44:29;;;;;;;;;2.33;1.00;;;;;;;;5074386;28;9803;-78
2023/10/05 11:46:54;;;;;;;;;0.00;0.00;;;;;;;;5077633;28;8818;-78
2023/10/05 11:49:20;;;;;;;;;0.00;0.00;;;;;;;;5052983;28;10066;-78
2023/10/05 11:51:59;;;;;;;;;3.00;1.00;;;;;;;;5079517;28;8715;-78
2023/10/05 11:54:24;;;;;;;;;1.75;0.25;;;;;;;;5081991;28;9860;-78
2023/10/05 11:56:55;;;;;;;;;2.00;1.00;;;;;;;;5058352;28;9561;-79
2023/10/05 11:59:27;;;;;;;;;2.33;1.33;;;;;;;;5081403;28;8739;-76
2023/10/05 12:01:52;;;;;;;;;2.00;1.00;;;;;;;;5093694;28;9499;-77
2023/10/05 12:04:19;;;;;;;;;1.33;1.33;;;;;;;;5083107;28;9550;-78
2023/10/05 12:06:45;;;;;;;;;4.67;1.67;;;;;;;;5080849;28;8810;-77
2023/10/05 12:09:27;;;;;;;;;2.67;1.67;;;;;;;;5081960;28;9658;-78
2023/10/05 12:11:54;;;;;;;;;2.00;2.00;;;;;;;;5079189;28;8887;-77
2023/10/05 12:14:19;;;;;;;;;1.00;1.00;;;;;;;;5063569;28;9507;-78
2023/10/05 12:16:44;;;;;;;;;2.00;0.67;;;;;;;;5077564;28;9432;-78
2023/10/05 12:19:16;;;;;;;;;2.33;0.67;;;;;;;;5082177;28;8778;-78
2023/10/05 12:21:42;;;;;;;;;0.00;0.00;;;;;;;;5079680;28;8792;-78
2023/10/05 12:24:10;;;;;;;;;0.00;0.00;;;;;;;;5082032;28;9215;-77
2023/10/05 12:26:36;;;;;;;;;1.67;1.33;;;;;;;;5080234;28;9251;-78
2023/10/05 12:29:01;;;;;;;;;5.00;0.67;;;;;;;;5082125;28;9593;-78
2023/10/05 12:31:26;;;;;;;;;1.00;1.00;;;;;;;;5077241;28;8858;-78
2023/10/05 12:33:51;;;;;;;;;0.67;0.33;;;;;;;;5082319;28;9279;-78
2023/10/05 12:36:16;;;;;;;;;4.33;1.00;;;;;;;;5080281;28;8816;-78
2023/10/05 12:38:43;;;;;;;;;0.67;0.67;;;;;;;;5081191;28;8809;-78
2023/10/05 12:41:15;;;;;;;;;5.33;1.00;;;;;;;;5080632;28;8786;-78
2023/10/05 12:43:42;;;;;;;;;2.00;2.00;;;;;;;;5081353;28;9342;-78
2023/10/05 12:46:11;;;;;;;;;3.33;2.00;;;;;;;;5081503;28;9259;-78
2023/10/05 12:48:45;;;;;;;;;1.33;1.33;;;;;;;;5083817;28;9437;-78
2023/10/05 12:51:11;;;;;;;;;2.33;1.33;;;;;;;;5081443;28;9104;-78
2023/10/05 12:53:37;;;;;;;;;3.00;1.00;;;;;;;;5079881;28;9142;-78
2023/10/05 12:56:03;;;;;;;;;5.67;1.67;;;;;;;;5081444;28;9249;-77
2023/10/05 12:58:29;;;;;;;;;1.00;1.00;;;;;;;;5079291;28;8782;-78
2023/10/05 13:00:54;;;;;;;;;1.00;1.00;;;;;;;;5080832;28;8806;-78
2023/10/05 13:03:24;;;;;;;;;1.33;1.00;;;;;;;;5081018;28;8802;-78
2023/10/05 13:05:51;;;;;;;;;1.33;1.00;;;;;;;;5079608;28;8743;-77
2023/10/05 13:08:16;;;;;;;;;1.00;1.00;;;;;;;;5080368;28;9351;-78
2023/10/05 13:10:43;;;;;;;;;2.00;0.00;;;;;;;;5080323;28;9109;-78
2023/10/05 13:13:17;;;;;;;;;3.00;0.00;;;;;;;;5080104;28;9169;-77
2023/10/05 13:15:43;;;;;;;;;1.33;1.00;;;;;;;;5073018;28;9187;-78
2023/10/05 13:18:21;;;;;;;;;1.00;1.00;;;;;;;;5082198;28;10062;-78
2023/10/05 13:20:55;;;;;;;;;1.67;0.67;;;;;;;;5078291;28;8871;-78
2023/10/05 13:23:21;;;;;;;;;0.00;0.00;;;;;;;;5096291;28;8920;-78
2023/10/05 13:25:50;;;;;;;;;0.67;0.00;;;;;;;;5078842;28;9207;-78
2023/10/05 13:28:16;;;;;;;;;0.00;0.00;;;;;;;;5079825;28;11337;-78
2023/10/05 13:30:43;;;;;;;;;4.00;1.00;;;;;;;;5079582;28;9123;-78
2023/10/05 13:33:13;;;;;;;;;2.33;0.00;;;;;;;;5063039;28;8840;-78
2023/10/05 13:35:41;;;;;;;;;3.67;0.67;;;;;;;;5080065;28;8983;-78
2023/10/05 13:38:07;;;;;;;;;3.67;0.67;;;;;;;;5080726;28;9360;-78
2023/10/05 13:40:34;;;;;;;;;2.00;1.00;;;;;;;;5090879;28;9169;-78
2023/10/05 13:43:00;;;;;;;;;1.33;0.67;;;;;;;;5079152;28;9021;-78
2023/10/05 13:45:28;;;;;;;;;1.33;0.67;;;;;;;;5078934;28;9333;-78
2023/10/05 13:47:53;;;;;;;;;4.33;1.00;;;;;;;;5073575;28;10158;-78
2023/10/05 13:50:22;;;;;;;;;3.00;1.00;;;;;;;;5056181;28;9072;-77
2023/10/05 13:52:50;;;;;;;;;1.00;1.00;;;;;;;;5058465;28;8755;-78
2023/10/05 13:55:19;;;;;;;;;1.00;1.00;;;;;;;;5059192;28;9431;-77
2023/10/05 13:57:44;;;;;;;;;1.00;1.00;;;;;;;;5057604;28;10503;-78
2023/10/05 14:00:18;;;;;;;;;2.00;1.00;;;;;;;;5058727;28;9126;-78
2023/10/05 14:02:44;;;;;;;;;1.00;1.00;;;;;;;;5057877;28;8795;-78
2023/10/05 14:05:09;;;;;;;;;1.00;1.00;;;;;;;;5058778;28;9037;-78
2023/10/05 14:07:34;;;;;;;;;2.00;1.00;;;;;;;;5060213;28;8818;-78
2023/10/05 14:09:59;;;;;;;;;2.00;2.00;;;;;;;;5058184;28;8838;-78
2023/10/05 14:12:25;;;;;;;;;1.67;1.00;;;;;;;;5058635;28;8951;-78
2023/10/05 14:14:50;;;;;;;;;0.67;0.00;;;;;;;;5073969;28;8837;-77
2023/10/05 14:17:16;;;;;;;;;0.67;0.33;;;;;;;;5082781;28;11105;-78
2023/10/05 14:19:42;;;;;;;;;1.67;0.67;;;;;;;;5057284;28;8767;-78
2023/10/05 14:22:09;;;;;;;;;0.67;0.67;;;;;;;;5054044;28;9768;-78
2023/10/05 14:24:34;;;;;;;;;2.00;1.00;;;;;;;;5055760;28;8801;-78
2023/10/05 14:27:04;;;;;;;;;0.67;0.67;;;;;;;;5060120;28;9037;-77
2023/10/05 14:29:36;;;;;;;;;1.00;1.00;;;;;;;;5059972;28;8803;-78
2023/10/05 14:32:04;;;;;;;;;1.25;1.25;;;;;;;;5058379;28;8922;-78
2023/10/05 14:34:32;;;;;;;;;0.67;0.67;;;;;;;;5059479;28;8870;-78
2023/10/05 14:36:58;;;;;;;;;2.25;1.25;;;;;;;;5062472;28;8870;-78
2023/10/05 14:39:25;;;;;;;;;0.25;0.25;;;;;;;;5062057;28;8755;-78
2023/10/05 14:41:54;;;;;;;;;4.50;0.00;;;;;;;;5062249;28;8811;-78
2023/10/05 14:44:19;;;;;;;;;1.00;0.00;;;;;;;;5058970;28;8994;-78
2023/10/05 14:46:49;;;;;;;;;2.00;1.00;;;;;;;;5072117;28;8822;-79
2023/10/05 14:49:15;;;;;;;;;0.00;0.00;;;;;;;;5084739;28;8779;-78
2023/10/05 14:51:41;;;;;;;;;2.00;0.25;;;;;;;;5082377;28;8751;-78
2023/10/05 14:54:09;;;;;;;;;1.67;1.67;;;;;;;;5082484;28;8822;-78
2023/10/05 14:56:35;;;;;;;;;2.75;1.75;;;;;;;;5089820;28;10196;-78
2023/10/05 14:59:00;;;;;;;;;2.00;1.00;;;;;;;;5082644;28;8885;-78
2023/10/05 15:01:25;;;;;;;;;2.00;0.67;;;;;;;;5083274;28;8833;-78
2023/10/05 15:03:50;;;;;;;;;1.00;1.00;;;;;;;;5082119;28;8783;-77
2023/10/05 15:06:18;;;;;;;;;1.00;0.33;;;;;;;;5080828;28;8870;-78
2023/10/05 15:08:45;;;;;;;;;4.25;0.75;;;;;;;;5083388;28;8872;-78
2023/10/05 15:11:11;;;;;;;;;2.75;1.50;;;;;;;;5075171;28;8735;-78
2023/10/05 15:13:37;;;;;;;;;2.00;0.00;;;;;;;;5083227;28;8826;-78
2023/10/05 15:16:05;;;;;;;;;2.75;1.75;;;;;;;;5083192;28;8810;-78
2023/10/05 15:18:31;;;;;;;;;4.00;1.50;;;;;;;;5081544;28;8783;-78